Time;durP1;ratioP1;P1;durP2;ratioP2;P2;SDS_P1;SDS_P2;PMS_P1;PMS_P2;Temp;Humidity;BMP_temperature;BMP_pressure;BME280_temperature;BME280_humidity;BME280_pressure;Samples;Min_cycle;Max_cycle;Signal;HPM_P1;HPM_P2
2023/12/10 00:00:28;;;;;;;28.33;7.53;;;;;;;6.91;100.00;99742.03;5009630;28;20047;-67
2023/12/10 00:02:53;;;;;;;27.67;8.40;;;;;;;6.98;100.00;99743.41;5010964;28;20476;-67
2023/12/10 00:05:19;;;;;;;29.88;7.70;;;;;;;6.99;100.00;99736.34;5017444;28;20037;-67
2023/12/10 00:07:44;;;;;;;23.52;6.90;;;;;;;6.98;100.00;99738.13;5003120;28;20033;-67
2023/12/10 00:10:09;;;;;;;29.98;7.30;;;;;;;7.00;100.00;99740.69;5012937;28;20021;-66
2023/12/10 00:12:35;;;;;;;27.92;7.40;;;;;;;7.06;100.00;99743.00;5026896;28;20395;-67
2023/12/10 00:15:01;;;;;;;27.17;7.30;;;;;;;7.13;100.00;99732.94;5021151;28;20160;-67
2023/12/10 00:17:26;;;;;;;33.17;7.93;;;;;;;7.15;100.00;99746.97;5024847;28;20026;-67
2023/12/10 00:19:52;;;;;;;29.75;7.22;;;;;;;7.16;100.00;99743.38;5021883;28;20037;-67
2023/12/10 00:22:17;;;;;;;31.63;8.70;;;;;;;7.14;100.00;99755.81;5020253;28;20040;-66
2023/12/10 00:24:43;;;;;;;30.30;8.15;;;;;;;7.13;100.00;99751.47;5023329;28;20507;-67
2023/12/10 00:27:09;;;;;;;27.00;7.70;;;;;;;7.10;100.00;99741.88;5020313;28;20499;-67
2023/12/10 00:29:37;;;;;;;28.80;7.70;;;;;;;7.19;100.00;99751.13;5019702;28;20030;-67
2023/12/10 00:32:02;;;;;;;30.92;7.63;;;;;;;7.22;100.00;99756.25;5024290;28;20029;-66
2023/12/10 00:34:28;;;;;;;30.30;7.90;;;;;;;7.23;100.00;99766.78;5027067;28;20582;-67
2023/12/10 00:36:53;;;;;;;25.83;7.15;;;;;;;7.28;100.00;99769.16;5021200;28;20029;-67
2023/12/10 00:39:19;;;;;;;22.52;6.47;;;;;;;7.26;100.00;99775.47;5019879;28;20025;-67
2023/12/10 00:41:45;;;;;;;22.60;6.30;;;;;;;7.24;100.00;99767.63;5021689;28;20483;-67
2023/12/10 00:44:11;;;;;;;24.73;6.57;;;;;;;7.23;100.00;99780.00;5020741;28;20075;-67
2023/12/10 00:46:36;;;;;;;21.45;6.90;;;;;;;7.23;100.00;99781.78;5019184;28;20406;-66
2023/12/10 00:49:01;;;;;;;29.77;6.68;;;;;;;7.22;100.00;99782.72;5014292;28;20511;-67
2023/12/10 00:51:28;;;;;;;24.73;6.32;;;;;;;7.17;100.00;99787.41;5017966;28;20512;-67
2023/12/10 00:53:53;;;;;;;26.02;7.10;;;;;;;7.14;100.00;99787.56;5017583;28;20029;-66
2023/12/10 00:56:18;;;;;;;22.95;6.50;;;;;;;7.22;100.00;99788.00;5018080;28;20025;-67
2023/12/10 00:58:44;;;;;;;26.02;6.72;;;;;;;7.28;100.00;99798.28;5016856;28;20104;-67
2023/12/10 01:01:10;;;;;;;27.30;6.97;;;;;;;7.30;100.00;99804.34;5018708;28;20065;-67
2023/12/10 01:03:36;;;;;;;22.63;6.00;;;;;;;7.31;100.00;99813.13;5013743;28;20025;-66
2023/12/10 01:06:05;;;;;;;26.70;6.63;;;;;;;7.19;100.00;99798.75;5019958;28;20041;-67
2023/12/10 01:08:31;;;;;;;23.02;6.38;;;;;;;7.20;100.00;99803.97;5018782;28;20107;-67
2023/12/10 01:10:58;;;;;;;18.30;6.13;;;;;;;7.16;100.00;99809.53;5010708;28;20061;-67
2023/12/10 01:13:24;;;;;;;25.35;6.07;;;;;;;7.08;100.00;99801.13;5014954;28;20026;-67
2023/12/10 01:15:57;;;;;;;22.35;6.75;;;;;;;7.08;100.00;99812.56;5025892;28;20415;-67
2023/12/10 01:18:22;;;;;;;24.90;7.23;;;;;;;7.03;100.00;99817.25;5022459;28;20021;-68
2023/12/10 01:20:48;;;;;;;22.80;5.82;;;;;;;7.05;100.00;99809.22;5018280;28;20033;-68
2023/12/10 01:23:16;;;;;;;29.15;7.43;;;;;;;7.02;100.00;99801.44;5014947;28;20507;-67
2023/12/10 01:25:42;;;;;;;25.35;7.10;;;;;;;7.04;100.00;99804.88;5022563;28;20115;-67
2023/12/10 01:28:09;;;;;;;23.10;6.28;;;;;;;7.07;100.00;99821.44;5019433;28;20112;-67
2023/12/10 01:30:37;;;;;;;19.75;6.20;;;;;;;7.14;100.00;99824.59;5022826;28;20026;-67
2023/12/10 01:33:03;;;;;;;23.42;6.10;;;;;;;7.08;100.00;99803.78;5018857;28;20036;-68
2023/12/10 01:35:29;;;;;;;23.48;5.93;;;;;;;7.21;100.00;99807.47;5025256;28;20032;-68
2023/12/10 01:37:55;;;;;;;22.40;6.15;;;;;;;7.30;100.00;99824.66;5021664;28;20110;-67
2023/12/10 01:40:21;;;;;;;18.50;5.55;;;;;;;7.27;100.00;99832.75;5016759;28;20029;-67
2023/12/10 01:42:46;;;;;;;22.48;5.93;;;;;;;7.31;100.00;99816.63;5017545;28;20114;-67
2023/12/10 01:45:13;;;;;;;23.38;5.90;;;;;;;7.34;100.00;99835.00;5016049;28;20445;-67
2023/12/10 01:47:42;;;;;;;17.83;5.65;;;;;;;7.30;100.00;99841.38;5017727;28;20487;-67
2023/12/10 01:50:12;;;;;;;24.85;6.63;;;;;;;7.34;100.00;99840.28;5017759;28;20022;-67
2023/12/10 01:52:39;;;;;;;28.15;6.90;;;;;;;7.24;100.00;99853.16;5013309;28;20224;-68
2023/12/10 01:55:10;;;;;;;21.17;6.13;;;;;;;7.23;100.00;99851.47;5014120;28;20167;-67
2023/12/10 01:57:37;;;;;;;21.23;6.05;;;;;;;7.12;100.00;99852.97;5024637;28;20098;-68
2023/12/10 02:00:07;;;;;;;18.38;5.78;;;;;;;6.99;100.00;99853.59;5022040;28;20061;-68
2023/12/10 02:02:36;;;;;;;18.55;5.60;;;;;;;6.88;100.00;99861.22;5026724;28;20056;-68
2023/12/10 02:05:07;;;;;;;21.63;5.70;;;;;;;6.84;100.00;99853.53;5016354;28;20029;-69
2023/12/10 02:07:37;;;;;;;19.55;5.10;;;;;;;6.62;100.00;99828.19;5025614;28;20029;-70
2023/12/10 02:10:05;;;;;;;22.55;5.85;;;;;;;6.58;100.00;99852.22;5019993;28;20495;-70
2023/12/10 02:12:32;;;;;;;20.50;5.93;;;;;;;6.47;100.00;99872.09;5016454;28;20029;-71
2023/12/10 02:14:58;;;;;;;19.90;5.63;;;;;;;6.41;100.00;99875.03;5018023;28;20037;-70
2023/12/10 02:17:23;;;;;;;22.50;5.45;;;;;;;6.35;100.00;99870.03;5010390;28;20129;-69
2023/12/10 02:19:49;;;;;;;23.60;5.40;;;;;;;6.27;100.00;99872.22;5017052;28;20032;-70
2023/12/10 02:22:19;;;;;;;21.52;6.18;;;;;;;6.18;100.00;99865.56;5022286;28;20053;-68
2023/12/10 02:24:51;;;;;;;21.85;5.57;;;;;;;6.17;100.00;99882.38;5020152;28;20083;-70
2023/12/10 02:27:16;;;;;;;22.02;6.00;;;;;;;6.12;100.00;99873.81;5023836;28;20200;-68
2023/12/10 02:29:42;;;;;;;23.88;5.22;;;;;;;6.08;100.00;99879.31;5021004;28;20333;-68
2023/12/10 02:32:08;;;;;;;25.30;5.82;;;;;;;6.14;100.00;99871.09;5020380;28;20391;-68
2023/12/10 02:34:35;;;;;;;24.13;6.30;;;;;;;6.06;100.00;99875.88;5015712;28;20034;-69
2023/12/10 02:37:00;;;;;;;22.83;6.00;;;;;;;6.03;100.00;99883.97;5017495;28;20029;-69
2023/12/10 02:39:26;;;;;;;16.50;5.05;;;;;;;6.08;100.00;99885.47;5018650;28;20492;-68
2023/12/10 02:41:52;;;;;;;22.35;5.35;;;;;;;6.02;100.00;99887.53;5025792;28;20033;-68
2023/12/10 02:44:17;;;;;;;19.80;5.65;;;;;;;5.98;100.00;99892.13;5021792;28;20495;-69
2023/12/10 02:46:52;;;;;;;18.90;5.38;;;;;;;5.99;100.00;99880.63;5015540;28;20044;-68
2023/12/10 02:49:17;;;;;;;19.63;5.28;;;;;;;6.13;100.00;99894.00;5018607;28;20187;-68
2023/12/10 02:51:43;;;;;;;24.42;5.53;;;;;;;6.18;100.00;99892.00;5020215;28;20017;-68
2023/12/10 02:54:08;;;;;;;18.88;5.28;;;;;;;6.14;100.00;99886.94;5018765;28;20112;-68
2023/12/10 02:56:34;;;;;;;25.15;5.57;;;;;;;6.16;100.00;99893.88;5019965;28;20522;-68
2023/12/10 02:59:00;;;;;;;22.67;5.75;;;;;;;6.19;100.00;99901.66;5024318;28;20045;-68
2023/12/10 03:01:26;;;;;;;21.80;5.75;;;;;;;6.16;100.00;99906.22;5022288;28;20038;-68
2023/12/10 03:03:52;;;;;;;21.30;6.07;;;;;;;6.20;100.00;99913.09;5020808;28;20205;-69
2023/12/10 03:06:17;;;;;;;19.38;4.85;;;;;;;6.27;100.00;99911.00;5022477;28;20129;-68
2023/12/10 03:08:43;;;;;;;18.73;5.13;;;;;;;6.30;100.00;99916.13;5016320;28;20033;-69
2023/12/10 03:11:08;;;;;;;19.55;5.45;;;;;;;6.38;100.00;99898.97;5021707;28;20484;-68
2023/12/10 03:13:33;;;;;;;19.25;6.00;;;;;;;6.35;100.00;99938.75;5027962;28;20503;-68
2023/12/10 03:15:59;;;;;;;20.23;5.72;;;;;;;6.41;100.00;99919.97;5017471;28;20033;-68
2023/12/10 03:18:25;;;;;;;19.38;5.80;;;;;;;6.48;100.00;99916.13;5022331;28;20571;-68
2023/12/10 03:20:50;;;;;;;19.65;5.55;;;;;;;6.54;100.00;99916.75;5023704;28;20083;-68
2023/12/10 03:23:16;;;;;;;19.10;5.47;;;;;;;6.51;100.00;99920.38;5023988;28;20064;-68
2023/12/10 03:25:42;;;;;;;20.52;5.63;;;;;;;6.53;100.00;99926.47;5027551;28;20519;-68
2023/12/10 03:28:07;;;;;;;21.25;5.53;;;;;;;6.59;100.00;99922.66;5023494;28;20534;-68
2023/12/10 03:30:32;;;;;;;21.50;5.43;;;;;;;6.67;100.00;99931.06;5022008;28;20021;-68
2023/12/10 03:32:58;;;;;;;20.25;5.55;;;;;;;6.67;100.00;99920.50;5017493;28;20131;-68
2023/12/10 03:35:23;;;;;;;16.52;4.63;;;;;;;6.81;100.00;99939.16;5023982;28;20361;-68
2023/12/10 03:37:49;;;;;;;22.98;5.57;;;;;;;6.84;100.00;99941.66;5030410;28;20025;-68
2023/12/10 03:40:14;;;;;;;19.50;5.15;;;;;;;6.85;100.00;99955.75;5020527;28;20412;-69
2023/12/10 03:42:40;;;;;;;17.90;5.55;;;;;;;6.83;100.00;99950.53;5023539;28;20480;-68
2023/12/10 03:45:05;;;;;;;22.05;5.78;;;;;;;6.88;100.00;99955.59;5021537;28;20057;-68
2023/12/10 03:47:31;;;;;;;22.42;5.13;;;;;;;6.86;100.00;99958.31;5020926;28;20201;-68
2023/12/10 03:49:56;;;;;;;20.55;5.38;;;;;;;6.96;100.00;99971.94;5025348;28;20636;-68
2023/12/10 03:52:22;;;;;;;19.20;5.13;;;;;;;6.94;100.00;99934.16;5021889;28;20547;-68
2023/12/10 03:54:47;;;;;;;22.10;5.45;;;;;;;7.01;100.00;99929.38;5023305;28;20047;-68
2023/12/10 03:57:13;;;;;;;20.95;5.22;;;;;;;7.16;100.00;99947.97;5027008;28;20045;-68
2023/12/10 03:59:38;;;;;;;18.05;5.15;;;;;;;7.16;100.00;99955.06;5023711;28;20259;-68
2023/12/10 04:02:04;;;;;;;16.63;5.00;;;;;;;7.20;100.00;99948.69;5022448;28;20041;-68
2023/12/10 04:04:30;;;;;;;20.35;5.20;;;;;;;7.23;100.00;99978.50;5023226;28;20022;-68
2023/12/10 04:06:56;;;;;;;21.05;5.72;;;;;;;7.18;100.00;99948.75;5021279;28;20045;-68
2023/12/10 04:09:21;;;;;;;16.83;5.15;;;;;;;7.30;100.00;99957.84;5021544;28;20025;-68
2023/12/10 04:11:47;;;;;;;15.75;5.07;;;;;;;7.31;100.00;99964.84;5024568;28;20395;-68
2023/12/10 04:14:12;;;;;;;20.30;5.05;;;;;;;7.37;100.00;99956.63;5025369;28;20047;-68
2023/12/10 04:16:39;;;;;;;14.63;5.30;;;;;;;7.43;100.00;99973.97;5024961;28;20527;-67
2023/12/10 04:19:07;;;;;;;18.65;5.13;;;;;;;7.40;100.00;99982.09;5024045;28;20517;-68
2023/12/10 04:21:32;;;;;;;20.70;5.53;;;;;;;7.40;100.00;99968.84;5023876;28;20029;-67
2023/12/10 04:23:58;;;;;;;23.05;5.60;;;;;;;7.42;100.00;99994.28;5022480;28;20041;-67
2023/12/10 04:26:23;;;;;;;15.23;5.32;;;;;;;7.47;100.00;99997.53;5018108;28;21088;-66
2023/12/10 04:28:49;;;;;;;18.80;4.70;;;;;;;7.49;100.00;99979.81;5020300;28;20513;-67
2023/12/10 04:31:15;;;;;;;13.93;4.43;;;;;;;7.49;100.00;99982.47;5021903;28;20063;-67
2023/12/10 04:33:44;;;;;;;18.55;5.03;;;;;;;7.55;98.88;99999.81;5019249;28;20030;-67
2023/12/10 04:36:09;;;;;;;14.60;4.60;;;;;;;7.55;100.00;100010.41;5015062;28;20042;-67
2023/12/10 04:38:35;;;;;;;17.02;5.45;;;;;;;7.56;99.75;100016.56;5021219;28;20120;-68
2023/12/10 04:41:00;;;;;;;15.65;4.88;;;;;;;7.60;98.75;100023.41;5026995;28;20103;-66
2023/12/10 04:43:26;;;;;;;16.52;5.35;;;;;;;7.59;99.21;100014.59;5012170;28;20112;-67
2023/12/10 04:45:51;;;;;;;16.33;4.80;;;;;;;7.59;99.00;100019.03;5018370;28;20712;-67
2023/12/10 04:48:17;;;;;;;17.13;5.45;;;;;;;7.62;97.28;100037.44;5015900;28;20030;-66
2023/12/10 04:50:42;;;;;;;18.08;5.10;;;;;;;7.65;97.45;100037.25;5012360;28;20034;-67
2023/12/10 04:53:08;;;;;;;13.27;4.50;;;;;;;7.62;98.92;100040.09;5023538;28;20098;-66
2023/12/10 04:55:33;;;;;;;16.17;4.25;;;;;;;7.63;97.88;100036.50;5017772;28;20116;-66
2023/12/10 04:57:59;;;;;;;19.60;4.65;;;;;;;7.62;98.11;100050.69;5021927;28;20029;-66
2023/12/10 05:00:24;;;;;;;17.38;4.95;;;;;;;7.61;97.69;100052.47;5020253;28;20166;-66
2023/12/10 05:02:50;;;;;;;18.63;5.22;;;;;;;7.64;97.16;100054.94;5025259;28;20025;-66
2023/12/10 05:05:16;;;;;;;16.40;4.75;;;;;;;7.69;96.62;100054.69;5025236;28;20404;-67
2023/12/10 05:07:42;;;;;;;16.88;4.50;;;;;;;7.69;96.21;100047.63;5018876;28;20037;-67
2023/12/10 05:10:07;;;;;;;17.38;4.45;;;;;;;7.69;96.66;100071.47;5014251;28;20104;-67
2023/12/10 05:12:33;;;;;;;17.55;4.90;;;;;;;7.69;96.73;100097.09;5022053;28;20278;-66
2023/12/10 05:14:58;;;;;;;16.38;5.00;;;;;;;7.67;96.94;100080.44;5017551;28;20207;-67
2023/12/10 05:17:24;;;;;;;18.13;4.55;;;;;;;7.75;95.54;100099.44;5020421;28;20440;-66
2023/12/10 05:19:49;;;;;;;18.48;4.95;;;;;;;7.71;96.11;100111.13;5006828;28;21012;-67
2023/12/10 05:22:15;;;;;;;14.52;4.70;;;;;;;7.63;96.43;100103.56;5020955;28;20036;-67
2023/12/10 05:24:41;;;;;;;20.45;4.97;;;;;;;7.70;96.82;100109.41;5020937;28;20646;-67
2023/12/10 05:27:06;;;;;;;17.50;5.57;;;;;;;7.58;97.32;100094.13;5019316;28;20116;-67
2023/12/10 05:29:32;;;;;;;17.30;4.85;;;;;;;7.65;97.64;100108.75;5022086;28;20021;-67
2023/12/10 05:31:57;;;;;;;18.02;5.20;;;;;;;7.58;98.97;100110.03;5026968;28;20507;-67
2023/12/10 05:34:23;;;;;;;15.95;4.47;;;;;;;7.70;95.88;100115.56;5021024;28;20033;-67
2023/12/10 05:36:48;;;;;;;19.25;5.55;;;;;;;7.71;96.70;100111.13;5021077;28;20032;-67
2023/12/10 05:39:14;;;;;;;20.95;5.53;;;;;;;7.67;97.88;100149.28;5018068;28;20052;-67
2023/12/10 05:41:40;;;;;;;15.00;4.35;;;;;;;7.69;97.09;100135.06;5018926;28;20029;-66
2023/12/10 05:44:05;;;;;;;19.40;5.05;;;;;;;7.70;96.86;100154.44;5020171;28;20060;-66
2023/12/10 05:46:31;;;;;;;19.90;5.10;;;;;;;7.73;96.73;100138.38;5019179;28;20139;-66
2023/12/10 05:48:57;;;;;;;16.15;5.47;;;;;;;7.72;96.29;100144.63;5019696;28;20041;-66
2023/12/10 05:51:22;;;;;;;18.80;5.32;;;;;;;7.72;96.23;100156.06;5020160;28;20399;-67
2023/12/10 05:53:48;;;;;;;18.92;5.05;;;;;;;7.72;96.58;100157.84;5022698;28;20475;-67
2023/12/10 05:56:13;;;;;;;13.88;4.50;;;;;;;7.71;97.26;100156.16;5021320;28;20029;-67
2023/12/10 05:58:38;;;;;;;19.75;5.88;;;;;;;7.70;95.48;100130.59;5014781;28;20037;-67
2023/12/10 06:01:05;;;;;;;17.58;5.05;;;;;;;7.75;95.63;100168.31;5022924;28;20124;-67
2023/12/10 06:03:30;;;;;;;18.77;4.80;;;;;;;7.83;94.83;100176.72;5016824;28;20040;-68
2023/12/10 06:05:56;;;;;;;17.63;5.00;;;;;;;7.75;95.50;100178.91;5020498;28;20037;-67
2023/12/10 06:08:21;;;;;;;16.50;5.07;;;;;;;7.79;95.51;100184.91;5020462;28;20052;-67
2023/12/10 06:10:47;;;;;;;17.90;4.63;;;;;;;7.79;95.18;100183.13;5019023;28;20029;-68
2023/12/10 06:13:12;;;;;;;19.25;4.65;;;;;;;7.80;95.49;100197.22;5019089;28;20159;-67
2023/12/10 06:15:37;;;;;;;19.90;5.10;;;;;;;7.80;95.49;100168.94;5018159;28;20124;-67
2023/12/10 06:18:03;;;;;;;15.65;4.47;;;;;;;7.81;95.26;100209.53;5018190;28;20096;-68
2023/12/10 06:20:29;;;;;;;17.55;4.63;;;;;;;7.82;95.19;100203.31;5022916;28;20021;-68
2023/12/10 06:22:54;;;;;;;15.45;4.68;;;;;;;7.79;95.49;100208.75;5019332;28;20902;-67
2023/12/10 06:25:19;;;;;;;17.95;5.38;;;;;;;7.82;94.71;100213.91;5020302;28;20306;-67
2023/12/10 06:27:45;;;;;;;21.35;5.57;;;;;;;7.83;94.53;100228.88;5016604;28;20034;-68
2023/12/10 06:30:11;;;;;;;17.25;4.68;;;;;;;7.78;95.34;100244.13;5021227;28;20508;-68
2023/12/10 06:32:36;;;;;;;22.75;5.60;;;;;;;7.78;95.58;100242.34;5015556;28;20124;-68
2023/12/10 06:35:02;;;;;;;17.55;5.25;;;;;;;7.77;95.66;100247.69;5024410;28;20271;-68
2023/12/10 06:37:27;;;;;;;17.70;5.20;;;;;;;7.77;95.38;100266.25;5025494;28;20037;-68
2023/12/10 06:39:54;;;;;;;15.98;4.65;;;;;;;7.70;96.88;100255.97;5023038;28;20230;-67
2023/12/10 06:42:19;;;;;;;16.38;5.65;;;;;;;7.73;96.31;100270.81;5025188;28;20252;-67
2023/12/10 06:44:44;;;;;;;19.38;4.95;;;;;;;7.70;96.88;100266.56;5028229;28;20207;-67
2023/12/10 06:47:11;;;;;;;18.05;5.32;;;;;;;7.71;96.60;100262.09;5025533;28;20116;-68
2023/12/10 06:49:36;;;;;;;17.92;4.97;;;;;;;7.71;96.70;100275.34;5019898;28;20025;-68
2023/12/10 06:52:02;;;;;;;23.00;5.15;;;;;;;7.72;96.67;100291.16;5020109;28;20044;-68
2023/12/10 06:54:27;;;;;;;18.02;4.45;;;;;;;7.75;95.96;100287.53;5022669;28;20145;-68
2023/12/10 06:56:53;;;;;;;21.20;4.93;;;;;;;7.66;95.95;100294.13;5015692;28;20108;-68
2023/12/10 06:59:18;;;;;;;20.42;5.15;;;;;;;7.73;96.62;100292.00;5021171;28;20041;-68
2023/12/10 07:01:44;;;;;;;14.50;4.63;;;;;;;7.72;96.23;100290.31;5015871;28;20037;-68
2023/12/10 07:04:09;;;;;;;17.17;5.40;;;;;;;7.72;96.89;100308.84;5021817;28;20255;-68
2023/12/10 07:06:35;;;;;;;22.00;5.30;;;;;;;7.64;96.88;100298.63;5022041;28;20017;-68
2023/12/10 07:09:00;;;;;;;20.15;5.40;;;;;;;7.66;97.10;100304.72;5031235;28;20039;-68
2023/12/10 07:11:26;;;;;;;18.38;5.55;;;;;;;7.72;96.32;100308.84;5018262;28;20034;-68
2023/12/10 07:13:53;;;;;;;20.35;5.50;;;;;;;7.69;96.87;100319.59;5025820;28;20495;-67
2023/12/10 07:16:19;;;;;;;22.90;5.22;;;;;;;7.66;96.87;100320.59;5020980;28;20140;-67
2023/12/10 07:18:44;;;;;;;14.00;4.68;;;;;;;7.67;96.46;100324.09;5012154;28;20025;-67
2023/12/10 07:21:09;;;;;;;19.70;5.03;;;;;;;7.69;95.84;100325.78;5024431;28;20040;-68
2023/12/10 07:23:36;;;;;;;21.17;6.05;;;;;;;7.69;96.06;100331.06;5026885;28;20026;-68
2023/12/10 07:26:02;;;;;;;19.38;5.15;;;;;;;7.66;95.24;100317.09;5023065;28;20184;-67
2023/12/10 07:28:28;;;;;;;16.45;4.45;;;;;;;7.70;95.11;100338.06;5018217;28;20032;-68
2023/12/10 07:30:53;;;;;;;16.70;4.78;;;;;;;7.73;94.74;100360.88;5022156;28;20025;-68
2023/12/10 07:33:18;;;;;;;16.42;4.95;;;;;;;7.73;95.05;100359.13;5023966;28;20025;-68
2023/12/10 07:35:44;;;;;;;24.70;5.50;;;;;;;7.70;95.28;100361.91;5022229;28;20403;-68
2023/12/10 07:38:10;;;;;;;16.58;5.05;;;;;;;7.68;94.98;100349.66;5019018;28;20021;-68
2023/12/10 07:40:35;;;;;;;18.90;5.13;;;;;;;7.69;95.60;100370.81;5022125;28;20112;-68
2023/12/10 07:43:00;;;;;;;21.52;5.22;;;;;;;7.75;94.77;100380.25;5025193;28;20056;-67
2023/12/10 07:45:26;;;;;;;20.70;5.57;;;;;;;7.69;96.36;100377.84;5024751;28;20084;-68
2023/12/10 07:47:51;;;;;;;22.67;5.80;;;;;;;7.67;96.65;100387.69;5023762;28;20051;-67
2023/12/10 07:50:17;;;;;;;23.10;5.68;;;;;;;7.67;96.78;100395.63;5012429;28;20114;-68
2023/12/10 07:52:42;;;;;;;18.88;5.03;;;;;;;7.65;97.43;100397.47;5022466;28;20068;-68
2023/12/10 07:55:07;;;;;;;16.13;4.95;;;;;;;7.63;98.02;100412.59;5024866;28;20432;-68
2023/12/10 07:57:33;;;;;;;18.20;5.18;;;;;;;7.64;98.37;100416.94;5020532;28;20106;-68
2023/12/10 07:59:58;;;;;;;24.55;5.40;;;;;;;7.62;98.66;100413.53;5014253;28;20046;-68
2023/12/10 08:02:23;;;;;;;23.13;6.07;;;;;;;7.56;99.77;100413.78;5019350;28;20309;-68
2023/12/10 08:04:49;;;;;;;18.75;5.43;;;;;;;7.58;99.47;100418.09;5016425;28;20529;-67
2023/12/10 08:07:15;;;;;;;20.02;5.43;;;;;;;7.59;99.56;100413.66;5020803;28;20455;-67
2023/12/10 08:09:40;;;;;;;17.20;5.25;;;;;;;7.61;99.75;100433.00;5020483;28;20416;-67
2023/12/10 08:12:06;;;;;;;18.80;5.15;;;;;;;7.59;100.00;100425.09;5014750;28;20514;-68
2023/12/10 08:14:31;;;;;;;21.35;5.28;;;;;;;7.62;100.00;100432.06;5011257;28;20495;-68
2023/12/10 08:16:57;;;;;;;22.25;6.32;;;;;;;7.61;100.00;100435.66;5019546;28;20124;-67
2023/12/10 08:19:22;;;;;;;20.05;5.45;;;;;;;7.59;100.00;100453.38;5019608;28;20033;-67
2023/12/10 08:21:47;;;;;;;26.27;6.05;;;;;;;7.64;100.00;100440.78;5021010;28;20028;-67
2023/12/10 08:24:13;;;;;;;17.60;5.00;;;;;;;7.61;100.00;100438.31;5020225;28;20484;-67
2023/12/10 08:26:38;;;;;;;22.15;5.28;;;;;;;7.62;100.00;100462.06;5021372;28;20526;-67
2023/12/10 08:29:04;;;;;;;27.63;5.95;;;;;;;7.64;100.00;100467.28;5021328;28;20048;-67
2023/12/10 08:31:29;;;;;;;19.33;5.55;;;;;;;7.70;100.00;100469.66;5016489;28;20384;-67
2023/12/10 08:33:54;;;;;;;23.02;5.15;;;;;;;7.64;100.00;100460.19;5021654;28;20033;-67
2023/12/10 08:36:20;;;;;;;21.08;5.93;;;;;;;7.68;100.00;100453.81;5023761;28;20039;-67
2023/12/10 08:38:46;;;;;;;22.40;5.57;;;;;;;7.70;100.00;100461.72;5023675;28;20033;-67
2023/12/10 08:41:11;;;;;;;17.38;5.43;;;;;;;7.71;100.00;100471.38;5019848;28;20373;-67
2023/12/10 08:43:39;;;;;;;19.50;5.53;;;;;;;7.69;100.00;100463.50;5019420;28;20033;-68
2023/12/10 08:46:05;;;;;;;20.33;5.38;;;;;;;7.68;100.00;100467.06;5016457;28;20025;-66
2023/12/10 08:48:30;;;;;;;18.52;5.68;;;;;;;7.73;100.00;100473.03;5026118;28;20380;-67
2023/12/10 08:50:56;;;;;;;19.85;5.30;;;;;;;7.74;100.00;100477.41;5024551;28;20063;-66
2023/12/10 08:53:21;;;;;;;17.83;5.03;;;;;;;7.70;100.00;100482.91;5026242;28;20032;-66
2023/12/10 08:55:48;;;;;;;17.13;5.30;;;;;;;7.65;100.00;100482.22;5024743;28;20251;-68
2023/12/10 08:58:14;;;;;;;20.42;5.65;;;;;;;7.60;100.00;100493.03;5015595;28;20029;-67
2023/12/10 09:00:39;;;;;;;19.83;5.00;;;;;;;7.57;100.00;100501.13;5023635;28;20099;-68
2023/12/10 09:03:05;;;;;;;18.55;4.95;;;;;;;7.63;100.00;100497.34;5026018;28;20063;-68
2023/12/10 09:05:31;;;;;;;19.00;5.55;;;;;;;7.63;100.00;100492.91;5019410;28;20067;-67
2023/12/10 09:07:57;;;;;;;24.33;5.57;;;;;;;7.62;100.00;100493.00;5019559;28;20072;-68
2023/12/10 09:10:22;;;;;;;24.48;5.72;;;;;;;7.66;100.00;100500.72;5021948;28;20032;-68
2023/12/10 09:12:48;;;;;;;25.08;6.00;;;;;;;7.68;100.00;100488.25;5023117;28;20088;-68
2023/12/10 09:15:13;;;;;;;18.40;5.10;;;;;;;7.66;100.00;100502.53;5026326;28;20056;-68
2023/12/10 09:17:39;;;;;;;25.35;5.97;;;;;;;7.71;100.00;100506.69;5019890;28;20510;-68
2023/12/10 09:20:06;;;;;;;19.90;5.32;;;;;;;7.82;100.00;100508.00;5025906;28;20594;-67
2023/12/10 09:22:31;;;;;;;21.10;5.50;;;;;;;7.85;100.00;100506.06;5022714;28;20124;-68
2023/12/10 09:24:57;;;;;;;21.30;5.35;;;;;;;7.88;100.00;100513.88;5024191;28;20135;-68
2023/12/10 09:27:22;;;;;;;17.92;5.25;;;;;;;7.91;100.00;100513.75;5022886;28;20118;-68
2023/12/10 09:29:47;;;;;;;22.17;5.90;;;;;;;7.94;100.00;100500.34;5024766;28;20519;-68
2023/12/10 09:32:15;;;;;;;17.52;6.07;;;;;;;7.99;100.00;100514.25;5018173;28;20033;-68
2023/12/10 09:34:41;;;;;;;20.48;5.47;;;;;;;8.01;100.00;100500.91;5016391;28;20095;-67
2023/12/10 09:37:10;;;;;;;19.25;5.55;;;;;;;8.08;100.00;100512.13;5017829;28;20468;-68
2023/12/10 09:39:36;;;;;;;18.98;5.22;;;;;;;8.08;100.00;100512.13;5016019;28;20468;-68
2023/12/10 09:42:02;;;;;;;19.05;5.82;;;;;;;8.11;100.00;100509.31;5024583;28;20084;-68
2023/12/10 09:44:28;;;;;;;21.58;5.55;;;;;;;8.11;100.00;100526.09;5019273;28;20083;-68
2023/12/10 09:46:53;;;;;;;22.33;6.38;;;;;;;8.08;100.00;100520.94;5023024;28;20037;-66
2023/12/10 09:49:22;;;;;;;19.33;5.97;;;;;;;8.13;100.00;100516.25;5019573;28;20064;-67
2023/12/10 09:51:47;;;;;;;19.75;5.35;;;;;;;8.13;100.00;100518.06;5028768;28;20275;-69
2023/12/10 09:54:13;;;;;;;26.48;5.53;;;;;;;8.18;100.00;100511.59;5015676;28;20807;-68
2023/12/10 09:56:39;;;;;;;20.17;5.35;;;;;;;8.26;100.00;100513.06;5015257;28;20076;-68
2023/12/10 09:59:06;;;;;;;24.35;6.13;;;;;;;8.28;100.00;100504.09;5019127;28;20045;-68
2023/12/10 10:01:31;;;;;;;21.00;5.38;;;;;;;8.41;100.00;100496.47;5019045;28;20196;-68
2023/12/10 10:03:57;;;;;;;22.40;5.85;;;;;;;8.51;100.00;100499.53;5014816;28;20057;-68
2023/12/10 10:06:22;;;;;;;17.10;5.18;;;;;;;8.63;100.00;100504.25;5017005;28;20412;-69
2023/12/10 10:08:48;;;;;;;24.73;5.53;;;;;;;8.64;100.00;100503.31;5016412;28;20847;-68
2023/12/10 10:11:13;;;;;;;25.63;6.10;;;;;;;8.67;100.00;100508.47;5018602;28;20017;-68
2023/12/10 10:13:50;;;;;;;20.98;5.05;;;;;;;8.68;100.00;100503.09;5024360;28;20549;-68
2023/12/10 10:16:16;;;;;;;19.70;5.75;;;;;;;8.60;100.00;100505.25;5026727;28;20546;-69
2023/12/10 10:18:43;;;;;;;16.30;5.65;;;;;;;8.46;100.00;100513.88;5011284;28;20065;-69
2023/12/10 10:21:10;;;;;;;20.58;5.53;;;;;;;8.32;100.00;100510.09;5014689;28;20068;-68
2023/12/10 10:23:35;;;;;;;17.55;5.30;;;;;;;8.32;100.00;100505.69;5016237;28;20022;-69
2023/12/10 10:26:01;;;;;;;22.85;5.50;;;;;;;8.39;100.00;100496.50;5019587;28;20234;-69
2023/12/10 10:28:27;;;;;;;21.90;5.43;;;;;;;8.41;100.00;100492.00;5018405;28;20176;-69
2023/12/10 10:30:53;;;;;;;20.05;5.82;;;;;;;8.39;100.00;100493.88;5015049;28;20021;-69
2023/12/10 10:33:20;;;;;;;20.27;6.65;;;;;;;8.35;100.00;100505.50;5019335;28;20107;-68
2023/12/10 10:35:46;;;;;;;18.10;5.70;;;;;;;8.41;100.00;100502.63;5021322;28;20041;-69
2023/12/10 10:38:13;;;;;;;21.27;5.78;;;;;;;8.41;100.00;100515.03;5024748;28;20040;-69
2023/12/10 10:40:38;;;;;;;20.35;5.03;;;;;;;8.43;100.00;100511.34;5018633;28;20036;-69
2023/12/10 10:43:04;;;;;;;20.65;5.30;;;;;;;8.50;100.00;100521.69;5013930;28;20272;-68
2023/12/10 10:45:29;;;;;;;21.48;5.43;;;;;;;8.56;100.00;100513.44;5016402;28;20336;-68
2023/12/10 10:47:55;;;;;;;19.27;5.38;;;;;;;8.58;100.00;100509.78;5016668;28;20472;-68
2023/12/10 10:50:21;;;;;;;17.23;5.10;;;;;;;8.75;100.00;100530.19;5016751;28;20030;-68
2023/12/10 10:52:48;;;;;;;19.10;5.45;;;;;;;8.91;100.00;100507.28;5017871;28;20052;-69
2023/12/10 10:55:16;;;;;;;21.50;4.78;;;;;;;9.04;99.59;100523.47;5015838;28;20041;-69
2023/12/10 10:57:41;;;;;;;22.75;5.25;;;;;;;8.92;99.14;100501.03;5012521;28;20091;-68
2023/12/10 11:00:20;;;;;;;22.23;5.05;;;;;;;9.03;99.84;100508.47;5013031;28;20501;-69
2023/12/10 11:02:47;;;;;;;18.38;5.05;;;;;;;9.01;99.38;100490.88;5013321;28;20036;-68
2023/12/10 11:05:13;;;;;;;17.88;5.13;;;;;;;9.14;99.55;100499.97;5016848;28;20049;-68
2023/12/10 11:07:40;;;;;;;20.80;5.53;;;;;;;9.25;97.73;100510.06;5012200;28;20033;-69
2023/12/10 11:10:07;;;;;;;19.27;4.75;;;;;;;9.28;97.37;100512.53;5016002;28;20037;-69
2023/12/10 11:12:42;;;;;;;16.15;5.15;;;;;;;9.21;97.47;100507.53;5012421;28;20034;-69
2023/12/10 11:15:13;;;;;;;16.23;5.22;;;;;;;9.10;97.52;100504.56;5018342;28;20029;-68
2023/12/10 11:17:54;;;;;;;14.98;5.07;;;;;;;9.07;99.34;100502.06;5007732;28;20545;-67